sensor_id;sensor_type;location;lat;lon;timestamp;P1;durP1;ratioP1;P2;durP2;ratioP2
17943;SDS011;9097;47.028;15.444;2023-03-03T00:02:21;6.90;;;4.20;;
17943;SDS011;9097;47.028;15.444;2023-03-03T00:05:23;3.57;;;3.20;;
17943;SDS011;9097;47.028;15.444;2023-03-03T00:08:26;7.53;;;4.30;;
17943;SDS011;9097;47.028;15.444;2023-03-03T00:11:28;8.10;;;4.60;;
17943;SDS011;9097;47.028;15.444;2023-03-03T00:14:31;14.50;;;5.40;;
17943;SDS011;9097;47.028;15.444;2023-03-03T00:17:35;9.47;;;6.33;;
17943;SDS011;9097;47.028;15.444;2023-03-03T00:20:38;9.77;;;5.37;;
17943;SDS011;9097;47.028;15.444;2023-03-03T00:23:41;8.83;;;5.00;;
17943;SDS011;9097;47.028;15.444;2023-03-03T00:26:43;6.57;;;4.90;;
17943;SDS011;9097;47.028;15.444;2023-03-03T00:29:47;6.53;;;5.10;;
17943;SDS011;9097;47.028;15.444;2023-03-03T00:32:54;9.57;;;5.80;;
17943;SDS011;9097;47.028;15.444;2023-03-03T00:35:58;8.97;;;4.50;;
17943;SDS011;9097;47.028;15.444;2023-03-03T00:39:21;8.63;;;5.30;;
17943;SDS011;9097;47.028;15.444;2023-03-03T00:42:29;9.83;;;4.20;;
17943;SDS011;9097;47.028;15.444;2023-03-03T00:45:37;7.50;;;5.10;;
17943;SDS011;9097;47.028;15.444;2023-03-03T00:48:47;7.83;;;3.63;;
17943;SDS011;9097;47.028;15.444;2023-03-03T00:51:50;9.77;;;4.37;;
17943;SDS011;9097;47.028;15.444;2023-03-03T00:54:53;7.40;;;3.77;;
17943;SDS011;9097;47.028;15.444;2023-03-03T00:57:56;11.90;;;5.03;;
17943;SDS011;9097;47.028;15.444;2023-03-03T01:00:58;10.97;;;5.90;;
17943;SDS011;9097;47.028;15.444;2023-03-03T01:04:02;11.50;;;4.13;;
17943;SDS011;9097;47.028;15.444;2023-03-03T01:07:05;7.03;;;4.43;;
17943;SDS011;9097;47.028;15.444;2023-03-03T01:10:07;14.90;;;7.67;;
17943;SDS011;9097;47.028;15.444;2023-03-03T01:13:10;8.87;;;5.20;;
17943;SDS011;9097;47.028;15.444;2023-03-03T01:16:13;17.57;;;6.57;;
17943;SDS011;9097;47.028;15.444;2023-03-03T01:19:17;13.53;;;4.93;;
17943;SDS011;9097;47.028;15.444;2023-03-03T01:22:19;9.57;;;5.00;;
17943;SDS011;9097;47.028;15.444;2023-03-03T01:25:22;15.77;;;5.40;;
17943;SDS011;9097;47.028;15.444;2023-03-03T01:28:24;8.90;;;5.10;;
17943;SDS011;9097;47.028;15.444;2023-03-03T01:31:26;5.73;;;4.40;;
17943;SDS011;9097;47.028;15.444;2023-03-03T01:34:30;10.40;;;4.33;;
17943;SDS011;9097;47.028;15.444;2023-03-03T01:37:33;9.50;;;5.13;;
17943;SDS011;9097;47.028;15.444;2023-03-03T01:40:36;10.30;;;5.00;;
17943;SDS011;9097;47.028;15.444;2023-03-03T01:43:42;7.57;;;5.13;;
17943;SDS011;9097;47.028;15.444;2023-03-03T01:46:50;6.17;;;4.30;;
17943;SDS011;9097;47.028;15.444;2023-03-03T01:49:57;10.30;;;5.83;;
17943;SDS011;9097;47.028;15.444;2023-03-03T01:53:00;8.83;;;4.07;;
17943;SDS011;9097;47.028;15.444;2023-03-03T01:56:03;5.13;;;4.10;;
17943;SDS011;9097;47.028;15.444;2023-03-03T01:59:08;7.30;;;4.27;;
17943;SDS011;9097;47.028;15.444;2023-03-03T02:02:12;8.23;;;4.00;;
17943;SDS011;9097;47.028;15.444;2023-03-03T02:05:16;9.17;;;4.80;;
17943;SDS011;9097;47.028;15.444;2023-03-03T02:08:20;6.47;;;4.07;;
17943;SDS011;9097;47.028;15.444;2023-03-03T02:11:23;5.60;;;4.73;;
17943;SDS011;9097;47.028;15.444;2023-03-03T02:14:26;8.33;;;5.33;;
17943;SDS011;9097;47.028;15.444;2023-03-03T02:17:29;15.33;;;5.73;;
17943;SDS011;9097;47.028;15.444;2023-03-03T02:20:39;10.10;;;4.73;;
17943;SDS011;9097;47.028;15.444;2023-03-03T02:23:45;4.67;;;3.10;;
17943;SDS011;9097;47.028;15.444;2023-03-03T02:26:50;6.27;;;4.67;;
17943;SDS011;9097;47.028;15.444;2023-03-03T02:29:53;8.37;;;5.13;;
17943;SDS011;9097;47.028;15.444;2023-03-03T02:32:55;8.87;;;4.87;;
17943;SDS011;9097;47.028;15.444;2023-03-03T02:35:58;10.07;;;4.20;;
17943;SDS011;9097;47.028;15.444;2023-03-03T02:39:02;13.07;;;6.17;;
17943;SDS011;9097;47.028;15.444;2023-03-03T02:42:07;10.40;;;4.77;;
17943;SDS011;9097;47.028;15.444;2023-03-03T02:45:11;3.67;;;2.77;;
17943;SDS011;9097;47.028;15.444;2023-03-03T02:48:13;5.30;;;4.23;;
17943;SDS011;9097;47.028;15.444;2023-03-03T02:51:15;5.97;;;4.07;;
17943;SDS011;9097;47.028;15.444;2023-03-03T02:54:19;11.63;;;4.10;;
17943;SDS011;9097;47.028;15.444;2023-03-03T02:57:23;7.53;;;4.07;;
17943;SDS011;9097;47.028;15.444;2023-03-03T03:00:25;8.63;;;4.47;;
17943;SDS011;9097;47.028;15.444;2023-03-03T03:03:28;7.77;;;3.67;;
17943;SDS011;9097;47.028;15.444;2023-03-03T03:06:30;7.37;;;4.27;;
17943;SDS011;9097;47.028;15.444;2023-03-03T03:09:33;6.13;;;3.47;;
17943;SDS011;9097;47.028;15.444;2023-03-03T03:12:37;6.33;;;4.23;;
17943;SDS011;9097;47.028;15.444;2023-03-03T03:15:39;9.37;;;4.50;;
17943;SDS011;9097;47.028;15.444;2023-03-03T03:18:41;7.13;;;5.03;;
17943;SDS011;9097;47.028;15.444;2023-03-03T03:21:44;11.03;;;5.23;;
17943;SDS011;9097;47.028;15.444;2023-03-03T03:24:46;6.80;;;3.37;;
17943;SDS011;9097;47.028;15.444;2023-03-03T03:27:50;7.30;;;4.40;;
17943;SDS011;9097;47.028;15.444;2023-03-03T03:30:53;7.27;;;4.43;;
17943;SDS011;9097;47.028;15.444;2023-03-03T03:33:55;8.63;;;4.27;;
17943;SDS011;9097;47.028;15.444;2023-03-03T03:36:59;5.70;;;3.93;;
17943;SDS011;9097;47.028;15.444;2023-03-03T03:40:02;13.43;;;4.63;;
17943;SDS011;9097;47.028;15.444;2023-03-03T03:43:06;5.63;;;3.37;;
17943;SDS011;9097;47.028;15.444;2023-03-03T03:46:09;7.30;;;5.23;;
17943;SDS011;9097;47.028;15.444;2023-03-03T03:49:12;8.13;;;5.13;;
17943;SDS011;9097;47.028;15.444;2023-03-03T03:52:14;3.50;;;3.20;;
17943;SDS011;9097;47.028;15.444;2023-03-03T03:55:17;6.87;;;4.53;;
17943;SDS011;9097;47.028;15.444;2023-03-03T03:58:20;3.87;;;3.07;;
17943;SDS011;9097;47.028;15.444;2023-03-03T04:01:23;9.63;;;4.83;;
17943;SDS011;9097;47.028;15.444;2023-03-03T04:04:25;6.33;;;2.70;;
17943;SDS011;9097;47.028;15.444;2023-03-03T04:07:28;5.00;;;3.60;;
17943;SDS011;9097;47.028;15.444;2023-03-03T04:10:30;5.50;;;4.50;;
17943;SDS011;9097;47.028;15.444;2023-03-03T04:13:34;5.23;;;3.53;;
17943;SDS011;9097;47.028;15.444;2023-03-03T04:16:36;4.13;;;3.50;;
17943;SDS011;9097;47.028;15.444;2023-03-03T04:19:38;9.23;;;3.50;;
17943;SDS011;9097;47.028;15.444;2023-03-03T04:22:41;6.33;;;2.70;;
17943;SDS011;9097;47.028;15.444;2023-03-03T04:25:44;4.47;;;3.27;;
17943;SDS011;9097;47.028;15.444;2023-03-03T04:28:48;4.73;;;3.80;;
17943;SDS011;9097;47.028;15.444;2023-03-03T04:31:51;9.80;;;5.07;;
17943;SDS011;9097;47.028;15.444;2023-03-03T04:34:54;6.60;;;2.47;;
17943;SDS011;9097;47.028;15.444;2023-03-03T04:37:56;8.63;;;4.17;;
17943;SDS011;9097;47.028;15.444;2023-03-03T04:40:59;6.07;;;3.93;;
17943;SDS011;9097;47.028;15.444;2023-03-03T04:44:03;7.93;;;3.27;;
17943;SDS011;9097;47.028;15.444;2023-03-03T04:47:05;4.80;;;3.37;;
17943;SDS011;9097;47.028;15.444;2023-03-03T04:50:08;7.70;;;3.90;;
17943;SDS011;9097;47.028;15.444;2023-03-03T04:53:11;4.07;;;2.50;;
17943;SDS011;9097;47.028;15.444;2023-03-03T04:56:13;4.27;;;2.73;;
17943;SDS011;9097;47.028;15.444;2023-03-03T04:59:17;9.17;;;4.17;;
17943;SDS011;9097;47.028;15.444;2023-03-03T05:02:19;4.37;;;2.63;;
17943;SDS011;9097;47.028;15.444;2023-03-03T05:05:22;5.03;;;2.57;;
17943;SDS011;9097;47.028;15.444;2023-03-03T05:08:24;3.53;;;2.23;;
17943;SDS011;9097;47.028;15.444;2023-03-03T05:11:26;6.60;;;4.37;;
17943;SDS011;9097;47.028;15.444;2023-03-03T05:14:30;6.63;;;4.37;;
17943;SDS011;9097;47.028;15.444;2023-03-03T05:17:32;11.40;;;4.33;;
17943;SDS011;9097;47.028;15.444;2023-03-03T05:20:35;2.73;;;2.43;;
17943;SDS011;9097;47.028;15.444;2023-03-03T05:23:37;4.67;;;2.93;;
17943;SDS011;9097;47.028;15.444;2023-03-03T05:26:40;5.77;;;2.63;;
17943;SDS011;9097;47.028;15.444;2023-03-03T05:29:43;7.63;;;4.20;;
17943;SDS011;9097;47.028;15.444;2023-03-03T05:32:46;7.93;;;3.47;;
17943;SDS011;9097;47.028;15.444;2023-03-03T05:35:52;6.27;;;3.70;;
17943;SDS011;9097;47.028;15.444;2023-03-03T05:38:55;7.67;;;3.63;;
17943;SDS011;9097;47.028;15.444;2023-03-03T05:41:58;5.73;;;3.47;;
17943;SDS011;9097;47.028;15.444;2023-03-03T05:45:02;4.60;;;3.60;;
17943;SDS011;9097;47.028;15.444;2023-03-03T05:48:05;6.73;;;3.37;;
17943;SDS011;9097;47.028;15.444;2023-03-03T05:51:09;5.93;;;3.80;;
17943;SDS011;9097;47.028;15.444;2023-03-03T05:54:11;4.80;;;3.13;;
17943;SDS011;9097;47.028;15.444;2023-03-03T05:57:13;6.70;;;3.20;;
17943;SDS011;9097;47.028;15.444;2023-03-03T06:00:18;7.60;;;2.63;;
17943;SDS011;9097;47.028;15.444;2023-03-03T06:03:22;8.20;;;4.37;;
17943;SDS011;9097;47.028;15.444;2023-03-03T06:06:24;13.27;;;4.03;;
17943;SDS011;9097;47.028;15.444;2023-03-03T06:09:27;6.23;;;4.33;;
17943;SDS011;9097;47.028;15.444;2023-03-03T06:12:29;3.30;;;2.97;;
17943;SDS011;9097;47.028;15.444;2023-03-03T06:15:33;7.20;;;3.67;;
17943;SDS011;9097;47.028;15.444;2023-03-03T06:18:35;7.63;;;4.17;;
17943;SDS011;9097;47.028;15.444;2023-03-03T06:21:38;2.60;;;2.13;;
17943;SDS011;9097;47.028;15.444;2023-03-03T06:24:40;4.77;;;3.07;;
17943;SDS011;9097;47.028;15.444;2023-03-03T06:27:42;7.20;;;3.67;;
17943;SDS011;9097;47.028;15.444;2023-03-03T06:30:46;5.03;;;3.50;;
17943;SDS011;9097;47.028;15.444;2023-03-03T06:33:48;7.63;;;4.03;;
17943;SDS011;9097;47.028;15.444;2023-03-03T06:36:50;5.90;;;3.63;;
17943;SDS011;9097;47.028;15.444;2023-03-03T06:39:53;5.53;;;4.10;;
17943;SDS011;9097;47.028;15.444;2023-03-03T06:42:55;6.70;;;4.00;;
17943;SDS011;9097;47.028;15.444;2023-03-03T06:45:58;6.67;;;4.67;;
17943;SDS011;9097;47.028;15.444;2023-03-03T06:49:01;8.80;;;4.20;;
17943;SDS011;9097;47.028;15.444;2023-03-03T06:52:08;6.77;;;3.70;;
17943;SDS011;9097;47.028;15.444;2023-03-03T06:55:16;7.00;;;3.60;;
17943;SDS011;9097;47.028;15.444;2023-03-03T06:58:24;7.33;;;3.70;;
17943;SDS011;9097;47.028;15.444;2023-03-03T07:01:32;10.27;;;3.50;;
17943;SDS011;9097;47.028;15.444;2023-03-03T07:04:36;18.03;;;4.70;;
17943;SDS011;9097;47.028;15.444;2023-03-03T07:07:38;5.30;;;3.47;;
17943;SDS011;9097;47.028;15.444;2023-03-03T07:10:41;7.27;;;5.10;;
17943;SDS011;9097;47.028;15.444;2023-03-03T07:13:45;12.03;;;4.97;;
17943;SDS011;9097;47.028;15.444;2023-03-03T07:16:51;6.57;;;4.67;;
17943;SDS011;9097;47.028;15.444;2023-03-03T07:20:00;6.27;;;4.60;;
17943;SDS011;9097;47.028;15.444;2023-03-03T07:23:07;4.07;;;2.20;;
17943;SDS011;9097;47.028;15.444;2023-03-03T07:26:17;8.57;;;5.63;;
17943;SDS011;9097;47.028;15.444;2023-03-03T07:29:23;4.40;;;3.27;;
17943;SDS011;9097;47.028;15.444;2023-03-03T07:32:30;5.53;;;4.87;;
17943;SDS011;9097;47.028;15.444;2023-03-03T07:35:38;7.10;;;4.67;;
17943;SDS011;9097;47.028;15.444;2023-03-03T07:38:45;7.97;;;6.30;;
17943;SDS011;9097;47.028;15.444;2023-03-03T07:41:53;8.30;;;4.60;;
17943;SDS011;9097;47.028;15.444;2023-03-03T07:45:03;5.10;;;3.83;;
17943;SDS011;9097;47.028;15.444;2023-03-03T07:48:28;9.83;;;4.80;;
17943;SDS011;9097;47.028;15.444;2023-03-03T07:51:36;3.50;;;2.43;;
17943;SDS011;9097;47.028;15.444;2023-03-03T07:54:42;3.40;;;3.10;;
17943;SDS011;9097;47.028;15.444;2023-03-03T07:57:46;6.73;;;4.13;;
17943;SDS011;9097;47.028;15.444;2023-03-03T08:04:31;14.43;;;7.23;;
17943;SDS011;9097;47.028;15.444;2023-03-03T08:07:40;8.23;;;4.77;;
17943;SDS011;9097;47.028;15.444;2023-03-03T08:10:43;9.80;;;4.60;;
17943;SDS011;9097;47.028;15.444;2023-03-03T08:13:48;7.90;;;5.20;;
17943;SDS011;9097;47.028;15.444;2023-03-03T08:16:50;15.20;;;6.07;;
17943;SDS011;9097;47.028;15.444;2023-03-03T08:19:55;8.20;;;5.97;;
17943;SDS011;9097;47.028;15.444;2023-03-03T08:22:57;5.40;;;4.70;;
17943;SDS011;9097;47.028;15.444;2023-03-03T08:26:00;7.00;;;4.13;;
17943;SDS011;9097;47.028;15.444;2023-03-03T08:29:02;8.00;;;5.63;;
17943;SDS011;9097;47.028;15.444;2023-03-03T08:32:04;13.73;;;6.93;;
17943;SDS011;9097;47.028;15.444;2023-03-03T08:35:09;8.27;;;4.83;;
17943;SDS011;9097;47.028;15.444;2023-03-03T08:38:13;6.53;;;5.77;;
17943;SDS011;9097;47.028;15.444;2023-03-03T08:41:17;9.57;;;5.40;;
17943;SDS011;9097;47.028;15.444;2023-03-03T08:44:19;8.87;;;5.43;;
17943;SDS011;9097;47.028;15.444;2023-03-03T08:47:21;9.03;;;6.23;;
17943;SDS011;9097;47.028;15.444;2023-03-03T08:50:25;7.93;;;5.73;;
17943;SDS011;9097;47.028;15.444;2023-03-03T08:53:28;14.40;;;5.90;;
17943;SDS011;9097;47.028;15.444;2023-03-03T08:56:32;11.63;;;5.03;;
17943;SDS011;9097;47.028;15.444;2023-03-03T08:59:35;10.60;;;6.33;;
17943;SDS011;9097;47.028;15.444;2023-03-03T09:02:38;10.77;;;6.07;;
17943;SDS011;9097;47.028;15.444;2023-03-03T09:05:42;8.23;;;4.43;;
17943;SDS011;9097;47.028;15.444;2023-03-03T09:08:45;7.83;;;4.93;;
17943;SDS011;9097;47.028;15.444;2023-03-03T09:11:47;9.93;;;5.47;;
17943;SDS011;9097;47.028;15.444;2023-03-03T09:14:50;13.03;;;6.47;;
17943;SDS011;9097;47.028;15.444;2023-03-03T09:17:53;9.93;;;6.50;;
17943;SDS011;9097;47.028;15.444;2023-03-03T09:20:57;11.07;;;5.97;;
17943;SDS011;9097;47.028;15.444;2023-03-03T09:23:59;13.87;;;8.27;;
17943;SDS011;9097;47.028;15.444;2023-03-03T09:27:06;10.87;;;5.97;;
17943;SDS011;9097;47.028;15.444;2023-03-03T09:30:15;17.08;;;7.40;;
17943;SDS011;9097;47.028;15.444;2023-03-03T09:33:28;13.68;;;6.63;;
17943;SDS011;9097;47.028;15.444;2023-03-03T09:36:36;7.22;;;5.63;;
17943;SDS011;9097;47.028;15.444;2023-03-03T09:39:38;8.35;;;4.93;;
17943;SDS011;9097;47.028;15.444;2023-03-03T09:42:45;5.35;;;4.70;;
17943;SDS011;9097;47.028;15.444;2023-03-03T09:45:55;6.80;;;5.00;;
17943;SDS011;9097;47.028;15.444;2023-03-03T09:49:02;6.90;;;3.63;;
17943;SDS011;9097;47.028;15.444;2023-03-03T09:52:15;4.53;;;3.90;;
17943;SDS011;9097;47.028;15.444;2023-03-03T09:55:24;5.10;;;3.33;;
17943;SDS011;9097;47.028;15.444;2023-03-03T09:58:43;4.65;;;3.40;;
17943;SDS011;9097;47.028;15.444;2023-03-03T10:01:49;4.53;;;3.25;;
17943;SDS011;9097;47.028;15.444;2023-03-03T10:05:04;4.00;;;2.95;;
17943;SDS011;9097;47.028;15.444;2023-03-03T10:08:20;6.32;;;3.97;;
17943;SDS011;9097;47.028;15.444;2023-03-03T10:11:25;5.53;;;4.00;;
17943;SDS011;9097;47.028;15.444;2023-03-03T10:14:37;8.07;;;4.47;;
17943;SDS011;9097;47.028;15.444;2023-03-03T10:17:45;5.75;;;4.18;;
17943;SDS011;9097;47.028;15.444;2023-03-03T10:20:57;8.70;;;4.75;;
17943;SDS011;9097;47.028;15.444;2023-03-03T10:24:08;7.35;;;4.47;;
17943;SDS011;9097;47.028;15.444;2023-03-03T10:27:20;5.95;;;3.83;;
17943;SDS011;9097;47.028;15.444;2023-03-03T10:30:32;8.25;;;5.00;;
17943;SDS011;9097;47.028;15.444;2023-03-03T10:33:41;5.90;;;4.10;;
17943;SDS011;9097;47.028;15.444;2023-03-03T10:36:50;9.02;;;4.60;;
17943;SDS011;9097;47.028;15.444;2023-03-03T10:40:02;6.68;;;4.60;;
17943;SDS011;9097;47.028;15.444;2023-03-03T10:43:13;7.18;;;3.78;;
17943;SDS011;9097;47.028;15.444;2023-03-03T10:46:26;7.28;;;3.55;;
17943;SDS011;9097;47.028;15.444;2023-03-03T10:49:40;10.55;;;4.13;;
17943;SDS011;9097;47.028;15.444;2023-03-03T10:52:50;7.10;;;3.72;;
17943;SDS011;9097;47.028;15.444;2023-03-03T10:56:04;6.43;;;3.60;;
17943;SDS011;9097;47.028;15.444;2023-03-03T10:59:14;8.35;;;4.10;;
17943;SDS011;9097;47.028;15.444;2023-03-03T11:02:22;4.47;;;3.15;;
17943;SDS011;9097;47.028;15.444;2023-03-03T11:05:28;5.38;;;3.25;;
17943;SDS011;9097;47.028;15.444;2023-03-03T11:08:33;7.22;;;3.63;;
17943;SDS011;9097;47.028;15.444;2023-03-03T11:11:39;5.95;;;3.90;;
17943;SDS011;9097;47.028;15.444;2023-03-03T11:14:46;9.18;;;4.20;;
17943;SDS011;9097;47.028;15.444;2023-03-03T11:17:55;6.78;;;4.00;;
17943;SDS011;9097;47.028;15.444;2023-03-03T11:21:02;6.05;;;4.28;;
17943;SDS011;9097;47.028;15.444;2023-03-03T11:24:18;8.48;;;4.07;;
17943;SDS011;9097;47.028;15.444;2023-03-03T11:27:28;5.88;;;3.35;;
17943;SDS011;9097;47.028;15.444;2023-03-03T11:30:54;4.53;;;3.03;;
17943;SDS011;9097;47.028;15.444;2023-03-03T11:34:00;4.97;;;3.10;;
17943;SDS011;9097;47.028;15.444;2023-03-03T11:37:06;5.60;;;3.30;;
17943;SDS011;9097;47.028;15.444;2023-03-03T11:40:12;8.97;;;4.07;;
17943;SDS011;9097;47.028;15.444;2023-03-03T11:43:20;9.30;;;4.13;;
17943;SDS011;9097;47.028;15.444;2023-03-03T11:46:25;7.03;;;3.57;;
17943;SDS011;9097;47.028;15.444;2023-03-03T11:49:32;6.83;;;4.30;;
17943;SDS011;9097;47.028;15.444;2023-03-03T11:52:38;6.93;;;3.73;;
17943;SDS011;9097;47.028;15.444;2023-03-03T11:55:44;7.03;;;3.77;;
17943;SDS011;9097;47.028;15.444;2023-03-03T11:58:52;6.53;;;3.80;;
17943;SDS011;9097;47.028;15.444;2023-03-03T12:02:08;4.50;;;3.37;;
17943;SDS011;9097;47.028;15.444;2023-03-03T12:05:38;3.67;;;3.20;;
17943;SDS011;9097;47.028;15.444;2023-03-03T12:08:59;8.17;;;3.23;;
17943;SDS011;9097;47.028;15.444;2023-03-03T12:12:04;7.63;;;3.77;;
17943;SDS011;9097;47.028;15.444;2023-03-03T12:15:15;4.57;;;3.50;;
17943;SDS011;9097;47.028;15.444;2023-03-03T12:18:24;5.67;;;3.80;;
17943;SDS011;9097;47.028;15.444;2023-03-03T12:21:37;6.90;;;3.73;;
17943;SDS011;9097;47.028;15.444;2023-03-03T12:24:45;6.60;;;3.20;;
17943;SDS011;9097;47.028;15.444;2023-03-03T12:27:54;6.93;;;3.93;;
17943;SDS011;9097;47.028;15.444;2023-03-03T12:31:03;6.77;;;3.80;;
17943;SDS011;9097;47.028;15.444;2023-03-03T12:34:10;5.70;;;4.00;;
17943;SDS011;9097;47.028;15.444;2023-03-03T12:37:23;12.23;;;3.90;;
17943;SDS011;9097;47.028;15.444;2023-03-03T12:40:30;4.13;;;3.30;;
17943;SDS011;9097;47.028;15.444;2023-03-03T12:43:37;5.60;;;4.23;;
17943;SDS011;9097;47.028;15.444;2023-03-03T12:46:45;5.43;;;3.30;;
17943;SDS011;9097;47.028;15.444;2023-03-03T12:49:56;4.57;;;3.10;;
17943;SDS011;9097;47.028;15.444;2023-03-03T12:53:05;5.73;;;3.90;;
17943;SDS011;9097;47.028;15.444;2023-03-03T12:56:09;5.37;;;3.10;;
17943;SDS011;9097;47.028;15.444;2023-03-03T12:59:14;5.37;;;3.07;;
17943;SDS011;9097;47.028;15.444;2023-03-03T13:02:26;4.80;;;3.03;;
17943;SDS011;9097;47.028;15.444;2023-03-03T13:05:33;7.77;;;4.03;;
17943;SDS011;9097;47.028;15.444;2023-03-03T13:08:47;6.13;;;3.03;;
17943;SDS011;9097;47.028;15.444;2023-03-03T13:12:02;4.70;;;3.27;;
17943;SDS011;9097;47.028;15.444;2023-03-03T13:15:11;5.30;;;3.03;;
17943;SDS011;9097;47.028;15.444;2023-03-03T13:18:28;3.67;;;2.50;;
17943;SDS011;9097;47.028;15.444;2023-03-03T13:21:33;4.97;;;3.33;;
17943;SDS011;9097;47.028;15.444;2023-03-03T13:24:37;4.43;;;3.50;;
17943;SDS011;9097;47.028;15.444;2023-03-03T13:27:43;6.27;;;3.17;;
17943;SDS011;9097;47.028;15.444;2023-03-03T13:30:49;6.67;;;3.63;;
17943;SDS011;9097;47.028;15.444;2023-03-03T13:33:56;7.17;;;3.50;;
17943;SDS011;9097;47.028;15.444;2023-03-03T13:37:00;3.97;;;3.30;;
17943;SDS011;9097;47.028;15.444;2023-03-03T13:40:08;10.03;;;4.13;;
17943;SDS011;9097;47.028;15.444;2023-03-03T13:43:14;9.37;;;4.50;;
17943;SDS011;9097;47.028;15.444;2023-03-03T13:46:20;5.77;;;3.60;;
17943;SDS011;9097;47.028;15.444;2023-03-03T13:49:32;5.87;;;3.90;;
17943;SDS011;9097;47.028;15.444;2023-03-03T13:52:40;7.60;;;4.80;;
17943;SDS011;9097;47.028;15.444;2023-03-03T13:55:47;4.47;;;3.23;;
17943;SDS011;9097;47.028;15.444;2023-03-03T13:58:54;4.47;;;3.37;;
17943;SDS011;9097;47.028;15.444;2023-03-03T14:02:04;4.40;;;3.00;;
17943;SDS011;9097;47.028;15.444;2023-03-03T14:05:12;7.13;;;4.17;;
17943;SDS011;9097;47.028;15.444;2023-03-03T14:08:24;4.80;;;3.60;;
17943;SDS011;9097;47.028;15.444;2023-03-03T14:11:29;4.53;;;2.80;;
17943;SDS011;9097;47.028;15.444;2023-03-03T14:14:39;4.30;;;3.07;;
17943;SDS011;9097;47.028;15.444;2023-03-03T14:17:52;3.63;;;2.63;;
17943;SDS011;9097;47.028;15.444;2023-03-03T14:20:59;4.67;;;3.47;;
17943;SDS011;9097;47.028;15.444;2023-03-03T14:24:06;5.47;;;3.57;;
17943;SDS011;9097;47.028;15.444;2023-03-03T14:27:20;5.53;;;3.33;;
17943;SDS011;9097;47.028;15.444;2023-03-03T14:30:28;5.67;;;3.40;;
17943;SDS011;9097;47.028;15.444;2023-03-03T14:33:31;6.63;;;3.83;;
17943;SDS011;9097;47.028;15.444;2023-03-03T14:36:35;5.40;;;3.60;;
17943;SDS011;9097;47.028;15.444;2023-03-03T14:39:39;3.87;;;3.07;;
17943;SDS011;9097;47.028;15.444;2023-03-03T14:42:45;6.07;;;3.10;;
17943;SDS011;9097;47.028;15.444;2023-03-03T14:45:49;6.87;;;3.30;;
17943;SDS011;9097;47.028;15.444;2023-03-03T14:48:52;6.83;;;4.30;;
17943;SDS011;9097;47.028;15.444;2023-03-03T14:52:01;10.37;;;4.43;;
17943;SDS011;9097;47.028;15.444;2023-03-03T14:55:23;6.27;;;3.87;;
17943;SDS011;9097;47.028;15.444;2023-03-03T14:58:31;8.27;;;3.70;;
17943;SDS011;9097;47.028;15.444;2023-03-03T15:01:36;7.33;;;3.70;;
17943;SDS011;9097;47.028;15.444;2023-03-03T15:04:39;10.73;;;4.17;;
17943;SDS011;9097;47.028;15.444;2023-03-03T15:07:42;10.80;;;4.40;;
17943;SDS011;9097;47.028;15.444;2023-03-03T15:10:45;4.07;;;3.50;;
17943;SDS011;9097;47.028;15.444;2023-03-03T15:13:48;6.90;;;3.50;;
17943;SDS011;9097;47.028;15.444;2023-03-03T15:16:50;3.87;;;2.80;;
17943;SDS011;9097;47.028;15.444;2023-03-03T15:20:01;3.77;;;3.20;;
17943;SDS011;9097;47.028;15.444;2023-03-03T15:23:16;5.83;;;2.93;;
17943;SDS011;9097;47.028;15.444;2023-03-03T15:26:22;5.77;;;3.77;;
17943;SDS011;9097;47.028;15.444;2023-03-03T15:29:27;7.93;;;3.30;;
17943;SDS011;9097;47.028;15.444;2023-03-03T15:32:32;15.27;;;3.73;;
17943;SDS011;9097;47.028;15.444;2023-03-03T15:35:43;7.03;;;3.60;;
17943;SDS011;9097;47.028;15.444;2023-03-03T15:38:53;12.50;;;4.53;;
17943;SDS011;9097;47.028;15.444;2023-03-03T15:41:59;3.87;;;3.47;;
17943;SDS011;9097;47.028;15.444;2023-03-03T15:45:10;6.67;;;4.13;;
17943;SDS011;9097;47.028;15.444;2023-03-03T15:48:22;7.23;;;3.27;;
17943;SDS011;9097;47.028;15.444;2023-03-03T15:51:37;4.80;;;2.80;;
17943;SDS011;9097;47.028;15.444;2023-03-03T15:54:45;5.20;;;3.67;;
17943;SDS011;9097;47.028;15.444;2023-03-03T15:57:55;8.17;;;3.67;;
17943;SDS011;9097;47.028;15.444;2023-03-03T16:01:03;4.27;;;3.10;;
17943;SDS011;9097;47.028;15.444;2023-03-03T16:04:10;5.23;;;3.37;;
17943;SDS011;9097;47.028;15.444;2023-03-03T16:07:16;4.53;;;2.70;;
17943;SDS011;9097;47.028;15.444;2023-03-03T16:10:28;6.10;;;3.77;;
17943;SDS011;9097;47.028;15.444;2023-03-03T16:13:46;7.70;;;3.73;;
17943;SDS011;9097;47.028;15.444;2023-03-03T16:16:53;10.00;;;5.07;;
17943;SDS011;9097;47.028;15.444;2023-03-03T16:20:02;7.57;;;2.73;;
17943;SDS011;9097;47.028;15.444;2023-03-03T16:23:13;4.10;;;3.13;;
17943;SDS011;9097;47.028;15.444;2023-03-03T16:26:30;7.67;;;3.63;;
17943;SDS011;9097;47.028;15.444;2023-03-03T16:29:39;10.27;;;4.33;;
17943;SDS011;9097;47.028;15.444;2023-03-03T16:32:49;6.23;;;4.23;;
17943;SDS011;9097;47.028;15.444;2023-03-03T16:35:57;6.13;;;3.67;;
17943;SDS011;9097;47.028;15.444;2023-03-03T16:39:02;10.10;;;4.73;;
17943;SDS011;9097;47.028;15.444;2023-03-03T16:42:09;17.43;;;6.23;;
17943;SDS011;9097;47.028;15.444;2023-03-03T16:45:20;13.10;;;6.73;;
17943;SDS011;9097;47.028;15.444;2023-03-03T16:48:28;11.90;;;6.67;;
17943;SDS011;9097;47.028;15.444;2023-03-03T16:51:35;14.50;;;6.50;;
17943;SDS011;9097;47.028;15.444;2023-03-03T16:54:42;8.37;;;5.57;;
17943;SDS011;9097;47.028;15.444;2023-03-03T16:57:52;11.87;;;7.03;;
17943;SDS011;9097;47.028;15.444;2023-03-03T17:00:59;10.30;;;5.17;;
17943;SDS011;9097;47.028;15.444;2023-03-03T17:04:05;17.73;;;8.03;;
17943;SDS011;9097;47.028;15.444;2023-03-03T17:07:17;12.70;;;6.33;;
17943;SDS011;9097;47.028;15.444;2023-03-03T17:10:24;13.13;;;7.07;;
17943;SDS011;9097;47.028;15.444;2023-03-03T17:13:39;14.37;;;6.97;;
17943;SDS011;9097;47.028;15.444;2023-03-03T17:16:47;14.87;;;6.67;;
17943;SDS011;9097;47.028;15.444;2023-03-03T17:19:56;10.90;;;6.63;;
17943;SDS011;9097;47.028;15.444;2023-03-03T17:23:05;13.07;;;6.60;;
17943;SDS011;9097;47.028;15.444;2023-03-03T17:26:17;9.23;;;5.80;;
17943;SDS011;9097;47.028;15.444;2023-03-03T17:29:29;12.33;;;5.80;;
17943;SDS011;9097;47.028;15.444;2023-03-03T17:32:38;7.47;;;4.80;;
17943;SDS011;9097;47.028;15.444;2023-03-03T17:35:50;10.60;;;4.23;;
17943;SDS011;9097;47.028;15.444;2023-03-03T17:39:07;12.63;;;5.20;;
17943;SDS011;9097;47.028;15.444;2023-03-03T17:42:21;7.70;;;4.33;;
17943;SDS011;9097;47.028;15.444;2023-03-03T17:45:30;11.40;;;5.87;;
17943;SDS011;9097;47.028;15.444;2023-03-03T17:48:42;9.63;;;6.13;;
17943;SDS011;9097;47.028;15.444;2023-03-03T17:52:01;8.73;;;4.47;;
17943;SDS011;9097;47.028;15.444;2023-03-03T17:58:35;6.77;;;4.83;;
17943;SDS011;9097;47.028;15.444;2023-03-03T18:01:48;7.27;;;5.40;;
17943;SDS011;9097;47.028;15.444;2023-03-03T18:04:59;12.77;;;6.20;;
17943;SDS011;9097;47.028;15.444;2023-03-03T18:11:38;10.83;;;6.43;;
17943;SDS011;9097;47.028;15.444;2023-03-03T18:14:45;12.60;;;5.60;;
17943;SDS011;9097;47.028;15.444;2023-03-03T18:17:57;12.80;;;6.30;;
17943;SDS011;9097;47.028;15.444;2023-03-03T18:21:07;10.67;;;5.40;;
17943;SDS011;9097;47.028;15.444;2023-03-03T18:24:26;8.60;;;4.97;;
17943;SDS011;9097;47.028;15.444;2023-03-03T18:27:36;16.33;;;5.83;;
17943;SDS011;9097;47.028;15.444;2023-03-03T18:30:52;8.27;;;5.13;;
17943;SDS011;9097;47.028;15.444;2023-03-03T18:34:06;15.77;;;6.73;;
17943;SDS011;9097;47.028;15.444;2023-03-03T18:37:34;14.87;;;6.43;;
17943;SDS011;9097;47.028;15.444;2023-03-03T18:40:47;16.97;;;7.17;;
17943;SDS011;9097;47.028;15.444;2023-03-03T18:43:57;12.67;;;5.33;;
17943;SDS011;9097;47.028;15.444;2023-03-03T18:47:03;6.83;;;5.33;;
17943;SDS011;9097;47.028;15.444;2023-03-03T18:50:15;5.70;;;3.97;;
17943;SDS011;9097;47.028;15.444;2023-03-03T18:53:33;11.70;;;6.40;;